sensor_id;sensor_type;location;lat;lon;timestamp;P1;durP1;ratioP1;P2;durP2;ratioP2
6564;SDS011;3316;44.118;27.258;2023-05-21T00:00:57;18.27;;;9.60;;
6564;SDS011;3316;44.118;27.258;2023-05-21T00:03:23;15.30;;;10.30;;
6564;SDS011;3316;44.118;27.258;2023-05-21T00:05:51;15.60;;;10.23;;
6564;SDS011;3316;44.118;27.258;2023-05-21T00:08:16;17.40;;;11.40;;
6564;SDS011;3316;44.118;27.258;2023-05-21T00:10:41;16.07;;;10.37;;
6564;SDS011;3316;44.118;27.258;2023-05-21T00:13:07;14.87;;;10.27;;
6564;SDS011;3316;44.118;27.258;2023-05-21T00:15:34;12.43;;;10.60;;
6564;SDS011;3316;44.118;27.258;2023-05-21T00:18:00;16.87;;;10.67;;
6564;SDS011;3316;44.118;27.258;2023-05-21T00:20:25;15.47;;;10.00;;
6564;SDS011;3316;44.118;27.258;2023-05-21T00:22:53;13.17;;;10.00;;
6564;SDS011;3316;44.118;27.258;2023-05-21T00:25:19;15.00;;;10.00;;
6564;SDS011;3316;44.118;27.258;2023-05-21T00:27:44;15.97;;;11.30;;
6564;SDS011;3316;44.118;27.258;2023-05-21T00:30:10;15.73;;;11.27;;
6564;SDS011;3316;44.118;27.258;2023-05-21T00:32:35;14.23;;;9.97;;
6564;SDS011;3316;44.118;27.258;2023-05-21T00:35:01;14.23;;;10.40;;
6564;SDS011;3316;44.118;27.258;2023-05-21T00:37:27;12.40;;;10.23;;
6564;SDS011;3316;44.118;27.258;2023-05-21T00:39:58;10.83;;;9.03;;
6564;SDS011;3316;44.118;27.258;2023-05-21T00:42:24;15.57;;;10.50;;
6564;SDS011;3316;44.118;27.258;2023-05-21T00:44:51;11.90;;;10.23;;
6564;SDS011;3316;44.118;27.258;2023-05-21T00:47:18;14.43;;;10.63;;
6564;SDS011;3316;44.118;27.258;2023-05-21T00:49:45;15.60;;;10.73;;
6564;SDS011;3316;44.118;27.258;2023-05-21T00:52:12;18.43;;;11.10;;
6564;SDS011;3316;44.118;27.258;2023-05-21T00:54:39;16.17;;;10.53;;
6564;SDS011;3316;44.118;27.258;2023-05-21T00:57:05;17.97;;;10.10;;
6564;SDS011;3316;44.118;27.258;2023-05-21T00:59:31;13.70;;;9.83;;
6564;SDS011;3316;44.118;27.258;2023-05-21T01:01:57;16.70;;;11.20;;
6564;SDS011;3316;44.118;27.258;2023-05-21T01:04:28;16.50;;;10.70;;
6564;SDS011;3316;44.118;27.258;2023-05-21T01:06:55;15.00;;;10.67;;
6564;SDS011;3316;44.118;27.258;2023-05-21T01:09:23;17.30;;;14.10;;
6564;SDS011;3316;44.118;27.258;2023-05-21T01:11:50;15.10;;;11.80;;
6564;SDS011;3316;44.118;27.258;2023-05-21T01:14:16;21.63;;;12.93;;
6564;SDS011;3316;44.118;27.258;2023-05-21T01:16:44;16.93;;;13.63;;
6564;SDS011;3316;44.118;27.258;2023-05-21T01:19:13;19.83;;;13.67;;
6564;SDS011;3316;44.118;27.258;2023-05-21T01:21:41;13.67;;;10.90;;
6564;SDS011;3316;44.118;27.258;2023-05-21T01:24:10;13.43;;;9.43;;
6564;SDS011;3316;44.118;27.258;2023-05-21T01:26:36;14.00;;;11.17;;
6564;SDS011;3316;44.118;27.258;2023-05-21T01:29:06;13.70;;;11.20;;
6564;SDS011;3316;44.118;27.258;2023-05-21T01:34:16;15.87;;;10.60;;
6564;SDS011;3316;44.118;27.258;2023-05-21T01:36:46;16.33;;;10.47;;
6564;SDS011;3316;44.118;27.258;2023-05-21T01:39:17;15.40;;;11.53;;
6564;SDS011;3316;44.118;27.258;2023-05-21T01:41:47;14.70;;;12.00;;
6564;SDS011;3316;44.118;27.258;2023-05-21T01:44:14;14.73;;;10.93;;
6564;SDS011;3316;44.118;27.258;2023-05-21T01:46:42;17.20;;;11.00;;
6564;SDS011;3316;44.118;27.258;2023-05-21T01:49:07;14.80;;;10.97;;
6564;SDS011;3316;44.118;27.258;2023-05-21T01:51:33;18.17;;;12.20;;
6564;SDS011;3316;44.118;27.258;2023-05-21T01:54:00;17.70;;;10.90;;
6564;SDS011;3316;44.118;27.258;2023-05-21T01:56:26;16.33;;;10.83;;
6564;SDS011;3316;44.118;27.258;2023-05-21T01:58:53;14.67;;;11.03;;
6564;SDS011;3316;44.118;27.258;2023-05-21T02:01:23;16.13;;;11.83;;
6564;SDS011;3316;44.118;27.258;2023-05-21T02:03:48;15.20;;;12.10;;
6564;SDS011;3316;44.118;27.258;2023-05-21T02:06:14;17.50;;;12.60;;
6564;SDS011;3316;44.118;27.258;2023-05-21T02:08:40;18.23;;;14.03;;
6564;SDS011;3316;44.118;27.258;2023-05-21T02:11:05;16.30;;;12.87;;
6564;SDS011;3316;44.118;27.258;2023-05-21T02:13:31;25.47;;;13.27;;
6564;SDS011;3316;44.118;27.258;2023-05-21T02:15:56;18.47;;;12.27;;
6564;SDS011;3316;44.118;27.258;2023-05-21T02:18:22;15.53;;;11.07;;
6564;SDS011;3316;44.118;27.258;2023-05-21T02:20:47;16.00;;;11.50;;
6564;SDS011;3316;44.118;27.258;2023-05-21T02:23:12;14.13;;;11.13;;
6564;SDS011;3316;44.118;27.258;2023-05-21T02:25:38;15.50;;;12.63;;
6564;SDS011;3316;44.118;27.258;2023-05-21T02:28:04;16.13;;;14.13;;
6564;SDS011;3316;44.118;27.258;2023-05-21T02:30:29;20.03;;;13.53;;
6564;SDS011;3316;44.118;27.258;2023-05-21T02:32:54;18.73;;;14.17;;
6564;SDS011;3316;44.118;27.258;2023-05-21T02:35:22;18.83;;;15.27;;
6564;SDS011;3316;44.118;27.258;2023-05-21T02:37:48;15.90;;;12.27;;
6564;SDS011;3316;44.118;27.258;2023-05-21T02:40:13;22.63;;;12.63;;
6564;SDS011;3316;44.118;27.258;2023-05-21T02:42:39;17.30;;;11.67;;
6564;SDS011;3316;44.118;27.258;2023-05-21T02:45:08;18.50;;;12.27;;
6564;SDS011;3316;44.118;27.258;2023-05-21T02:47:35;24.63;;;12.93;;
6564;SDS011;3316;44.118;27.258;2023-05-21T02:50:02;19.27;;;12.17;;
6564;SDS011;3316;44.118;27.258;2023-05-21T02:52:29;23.97;;;12.67;;
6564;SDS011;3316;44.118;27.258;2023-05-21T02:54:55;17.63;;;12.17;;
6564;SDS011;3316;44.118;27.258;2023-05-21T02:57:20;15.70;;;11.37;;
6564;SDS011;3316;44.118;27.258;2023-05-21T02:59:46;14.57;;;11.30;;
6564;SDS011;3316;44.118;27.258;2023-05-21T03:02:11;15.83;;;11.53;;
6564;SDS011;3316;44.118;27.258;2023-05-21T03:04:36;15.17;;;11.37;;
6564;SDS011;3316;44.118;27.258;2023-05-21T03:07:03;17.57;;;11.57;;
6564;SDS011;3316;44.118;27.258;2023-05-21T03:09:29;18.73;;;11.97;;
6564;SDS011;3316;44.118;27.258;2023-05-21T03:11:54;16.87;;;12.07;;
6564;SDS011;3316;44.118;27.258;2023-05-21T03:14:19;17.80;;;12.43;;
6564;SDS011;3316;44.118;27.258;2023-05-21T03:16:45;18.47;;;12.10;;
6564;SDS011;3316;44.118;27.258;2023-05-21T03:19:11;20.20;;;12.07;;
6564;SDS011;3316;44.118;27.258;2023-05-21T03:21:37;16.50;;;11.03;;
6564;SDS011;3316;44.118;27.258;2023-05-21T03:24:05;14.70;;;11.23;;
6564;SDS011;3316;44.118;27.258;2023-05-21T03:26:31;16.60;;;11.93;;
6564;SDS011;3316;44.118;27.258;2023-05-21T03:28:57;14.83;;;11.30;;
6564;SDS011;3316;44.118;27.258;2023-05-21T03:31:23;16.53;;;11.77;;
6564;SDS011;3316;44.118;27.258;2023-05-21T03:33:50;17.80;;;11.73;;
6564;SDS011;3316;44.118;27.258;2023-05-21T03:36:16;15.93;;;11.40;;
6564;SDS011;3316;44.118;27.258;2023-05-21T03:38:42;21.53;;;10.97;;
6564;SDS011;3316;44.118;27.258;2023-05-21T03:41:08;20.30;;;10.77;;
6564;SDS011;3316;44.118;27.258;2023-05-21T03:43:34;15.27;;;10.83;;
6564;SDS011;3316;44.118;27.258;2023-05-21T03:45:59;20.33;;;10.90;;
6564;SDS011;3316;44.118;27.258;2023-05-21T03:48:25;14.57;;;10.73;;
6564;SDS011;3316;44.118;27.258;2023-05-21T03:50:50;16.83;;;10.03;;
6564;SDS011;3316;44.118;27.258;2023-05-21T03:53:16;15.30;;;10.37;;
6564;SDS011;3316;44.118;27.258;2023-05-21T03:55:42;14.60;;;10.30;;
6564;SDS011;3316;44.118;27.258;2023-05-21T03:58:07;17.47;;;10.23;;
6564;SDS011;3316;44.118;27.258;2023-05-21T04:00:34;14.20;;;10.20;;
6564;SDS011;3316;44.118;27.258;2023-05-21T04:03:01;15.90;;;9.73;;
6564;SDS011;3316;44.118;27.258;2023-05-21T04:05:27;15.63;;;9.98;;
6564;SDS011;3316;44.118;27.258;2023-05-21T04:07:53;13.68;;;10.05;;
6564;SDS011;3316;44.118;27.258;2023-05-21T04:10:19;15.98;;;11.15;;
6564;SDS011;3316;44.118;27.258;2023-05-21T04:12:45;13.73;;;9.93;;
6564;SDS011;3316;44.118;27.258;2023-05-21T04:15:13;12.30;;;9.45;;
6564;SDS011;3316;44.118;27.258;2023-05-21T04:17:42;17.38;;;10.35;;
6564;SDS011;3316;44.118;27.258;2023-05-21T04:20:09;23.48;;;9.25;;
6564;SDS011;3316;44.118;27.258;2023-05-21T04:22:35;15.05;;;9.68;;
6564;SDS011;3316;44.118;27.258;2023-05-21T04:25:01;13.60;;;9.55;;
6564;SDS011;3316;44.118;27.258;2023-05-21T04:27:27;13.30;;;8.93;;
6564;SDS011;3316;44.118;27.258;2023-05-21T04:29:52;11.63;;;8.68;;
6564;SDS011;3316;44.118;27.258;2023-05-21T04:32:18;12.25;;;8.90;;
6564;SDS011;3316;44.118;27.258;2023-05-21T04:34:44;15.02;;;9.10;;
6564;SDS011;3316;44.118;27.258;2023-05-21T04:37:10;9.68;;;8.18;;
6564;SDS011;3316;44.118;27.258;2023-05-21T04:39:36;19.00;;;9.45;;
6564;SDS011;3316;44.118;27.258;2023-05-21T04:42:01;14.35;;;9.10;;
6564;SDS011;3316;44.118;27.258;2023-05-21T04:44:27;11.65;;;10.05;;
6564;SDS011;3316;44.118;27.258;2023-05-21T04:46:53;10.52;;;8.65;;
6564;SDS011;3316;44.118;27.258;2023-05-21T04:49:19;12.75;;;9.13;;
6564;SDS011;3316;44.118;27.258;2023-05-21T04:51:45;13.07;;;9.07;;
6564;SDS011;3316;44.118;27.258;2023-05-21T04:54:11;14.27;;;9.52;;
6564;SDS011;3316;44.118;27.258;2023-05-21T04:56:36;10.55;;;8.82;;
6564;SDS011;3316;44.118;27.258;2023-05-21T04:59:02;16.92;;;9.30;;
6564;SDS011;3316;44.118;27.258;2023-05-21T05:01:28;10.95;;;8.02;;
6564;SDS011;3316;44.118;27.258;2023-05-21T05:03:53;14.20;;;9.10;;
6564;SDS011;3316;44.118;27.258;2023-05-21T05:06:19;12.93;;;8.40;;
6564;SDS011;3316;44.118;27.258;2023-05-21T05:08:45;12.85;;;8.77;;
6564;SDS011;3316;44.118;27.258;2023-05-21T05:11:11;11.73;;;8.65;;
6564;SDS011;3316;44.118;27.258;2023-05-21T05:13:38;17.38;;;8.80;;
6564;SDS011;3316;44.118;27.258;2023-05-21T05:16:04;45.17;;;9.85;;
6564;SDS011;3316;44.118;27.258;2023-05-21T05:18:31;15.48;;;8.52;;
6564;SDS011;3316;44.118;27.258;2023-05-21T05:20:58;23.00;;;10.55;;
6564;SDS011;3316;44.118;27.258;2023-05-21T05:23:23;15.38;;;8.63;;
6564;SDS011;3316;44.118;27.258;2023-05-21T05:25:49;12.95;;;9.18;;
6564;SDS011;3316;44.118;27.258;2023-05-21T05:28:14;12.90;;;9.13;;
6564;SDS011;3316;44.118;27.258;2023-05-21T05:30:39;12.50;;;9.45;;
6564;SDS011;3316;44.118;27.258;2023-05-21T05:33:05;15.02;;;8.52;;
6564;SDS011;3316;44.118;27.258;2023-05-21T05:35:30;12.70;;;9.02;;
6564;SDS011;3316;44.118;27.258;2023-05-21T05:37:56;10.98;;;8.50;;
6564;SDS011;3316;44.118;27.258;2023-05-21T05:40:22;13.52;;;9.68;;
6564;SDS011;3316;44.118;27.258;2023-05-21T05:42:47;14.00;;;8.07;;
6564;SDS011;3316;44.118;27.258;2023-05-21T05:45:13;12.77;;;8.52;;
6564;SDS011;3316;44.118;27.258;2023-05-21T05:47:39;13.63;;;8.50;;
6564;SDS011;3316;44.118;27.258;2023-05-21T05:50:04;9.50;;;7.97;;
6564;SDS011;3316;44.118;27.258;2023-05-21T05:52:30;10.45;;;7.68;;
6564;SDS011;3316;44.118;27.258;2023-05-21T05:54:55;13.77;;;8.15;;
6564;SDS011;3316;44.118;27.258;2023-05-21T05:57:21;12.70;;;8.27;;
6564;SDS011;3316;44.118;27.258;2023-05-21T05:59:46;13.48;;;8.57;;
6564;SDS011;3316;44.118;27.258;2023-05-21T06:02:12;10.88;;;8.00;;
6564;SDS011;3316;44.118;27.258;2023-05-21T06:04:37;13.10;;;7.57;;
6564;SDS011;3316;44.118;27.258;2023-05-21T06:07:03;13.63;;;9.27;;
6564;SDS011;3316;44.118;27.258;2023-05-21T06:09:28;10.60;;;7.97;;
6564;SDS011;3316;44.118;27.258;2023-05-21T06:11:54;12.40;;;7.45;;
6564;SDS011;3316;44.118;27.258;2023-05-21T06:14:20;11.75;;;7.95;;
6564;SDS011;3316;44.118;27.258;2023-05-21T06:16:45;13.02;;;8.48;;
6564;SDS011;3316;44.118;27.258;2023-05-21T06:19:10;14.05;;;8.45;;
6564;SDS011;3316;44.118;27.258;2023-05-21T06:21:36;13.35;;;8.10;;
6564;SDS011;3316;44.118;27.258;2023-05-21T06:24:01;10.32;;;8.40;;
6564;SDS011;3316;44.118;27.258;2023-05-21T06:26:27;12.93;;;7.80;;
6564;SDS011;3316;44.118;27.258;2023-05-21T06:28:52;12.82;;;8.52;;
6564;SDS011;3316;44.118;27.258;2023-05-21T06:31:17;13.82;;;8.65;;
6564;SDS011;3316;44.118;27.258;2023-05-21T06:33:46;13.48;;;8.20;;
6564;SDS011;3316;44.118;27.258;2023-05-21T06:36:13;14.13;;;8.00;;
6564;SDS011;3316;44.118;27.258;2023-05-21T06:38:39;12.30;;;8.70;;
6564;SDS011;3316;44.118;27.258;2023-05-21T06:41:05;9.70;;;7.55;;
6564;SDS011;3316;44.118;27.258;2023-05-21T06:43:30;10.80;;;7.57;;
6564;SDS011;3316;44.118;27.258;2023-05-21T06:45:56;11.35;;;7.95;;
6564;SDS011;3316;44.118;27.258;2023-05-21T06:48:21;8.68;;;7.45;;
6564;SDS011;3316;44.118;27.258;2023-05-21T06:50:47;8.45;;;6.57;;
6564;SDS011;3316;44.118;27.258;2023-05-21T06:53:12;7.40;;;6.20;;
6564;SDS011;3316;44.118;27.258;2023-05-21T06:55:40;9.10;;;6.60;;
6564;SDS011;3316;44.118;27.258;2023-05-21T06:58:09;12.25;;;6.10;;
6564;SDS011;3316;44.118;27.258;2023-05-21T07:00:34;9.57;;;6.38;;
6564;SDS011;3316;44.118;27.258;2023-05-21T07:03:00;7.38;;;5.82;;
6564;SDS011;3316;44.118;27.258;2023-05-21T07:05:26;8.73;;;6.32;;
6564;SDS011;3316;44.118;27.258;2023-05-21T07:07:51;9.95;;;6.10;;
6564;SDS011;3316;44.118;27.258;2023-05-21T07:10:16;9.65;;;6.22;;
6564;SDS011;3316;44.118;27.258;2023-05-21T07:12:42;10.52;;;6.03;;
6564;SDS011;3316;44.118;27.258;2023-05-21T07:15:07;8.65;;;6.55;;
6564;SDS011;3316;44.118;27.258;2023-05-21T07:17:33;10.13;;;6.30;;
6564;SDS011;3316;44.118;27.258;2023-05-21T07:19:59;8.30;;;5.55;;
6564;SDS011;3316;44.118;27.258;2023-05-21T07:22:24;18.80;;;6.32;;
6564;SDS011;3316;44.118;27.258;2023-05-21T07:24:50;8.80;;;6.53;;
6564;SDS011;3316;44.118;27.258;2023-05-21T07:27:15;8.65;;;5.78;;
6564;SDS011;3316;44.118;27.258;2023-05-21T07:29:40;11.55;;;6.38;;
6564;SDS011;3316;44.118;27.258;2023-05-21T07:32:06;12.18;;;5.80;;
6564;SDS011;3316;44.118;27.258;2023-05-21T07:34:31;8.07;;;5.32;;
6564;SDS011;3316;44.118;27.258;2023-05-21T07:36:57;10.77;;;6.25;;
6564;SDS011;3316;44.118;27.258;2023-05-21T07:39:22;10.23;;;5.78;;
6564;SDS011;3316;44.118;27.258;2023-05-21T07:41:47;10.65;;;6.63;;
6564;SDS011;3316;44.118;27.258;2023-05-21T07:44:13;11.90;;;7.05;;
6564;SDS011;3316;44.118;27.258;2023-05-21T07:46:38;11.25;;;5.75;;
6564;SDS011;3316;44.118;27.258;2023-05-21T07:49:04;9.18;;;5.45;;
6564;SDS011;3316;44.118;27.258;2023-05-21T07:51:29;9.25;;;6.88;;
6564;SDS011;3316;44.118;27.258;2023-05-21T07:53:55;10.15;;;5.75;;
6564;SDS011;3316;44.118;27.258;2023-05-21T07:56:21;11.25;;;6.10;;
6564;SDS011;3316;44.118;27.258;2023-05-21T07:58:46;9.85;;;5.70;;
6564;SDS011;3316;44.118;27.258;2023-05-21T08:01:12;8.07;;;5.95;;
6564;SDS011;3316;44.118;27.258;2023-05-21T08:03:37;9.57;;;6.00;;
6564;SDS011;3316;44.118;27.258;2023-05-21T08:06:03;8.75;;;6.03;;
6564;SDS011;3316;44.118;27.258;2023-05-21T08:08:28;8.43;;;6.05;;
6564;SDS011;3316;44.118;27.258;2023-05-21T08:10:54;17.30;;;6.13;;
6564;SDS011;3316;44.118;27.258;2023-05-21T08:13:20;10.00;;;6.45;;
6564;SDS011;3316;44.118;27.258;2023-05-21T08:15:46;9.85;;;5.97;;
6564;SDS011;3316;44.118;27.258;2023-05-21T08:18:12;9.00;;;5.85;;
6564;SDS011;3316;44.118;27.258;2023-05-21T08:20:37;9.95;;;6.03;;
6564;SDS011;3316;44.118;27.258;2023-05-21T08:23:03;9.63;;;5.88;;
6564;SDS011;3316;44.118;27.258;2023-05-21T08:25:28;8.82;;;5.80;;
6564;SDS011;3316;44.118;27.258;2023-05-21T08:27:54;9.98;;;6.07;;
6564;SDS011;3316;44.118;27.258;2023-05-21T08:30:20;14.57;;;6.18;;
6564;SDS011;3316;44.118;27.258;2023-05-21T08:32:46;8.35;;;5.47;;
6564;SDS011;3316;44.118;27.258;2023-05-21T08:35:11;8.27;;;6.03;;
6564;SDS011;3316;44.118;27.258;2023-05-21T08:37:37;12.52;;;6.65;;
6564;SDS011;3316;44.118;27.258;2023-05-21T08:40:02;11.93;;;5.63;;
6564;SDS011;3316;44.118;27.258;2023-05-21T08:42:38;9.77;;;6.15;;
6564;SDS011;3316;44.118;27.258;2023-05-21T08:45:07;7.68;;;5.70;;
6564;SDS011;3316;44.118;27.258;2023-05-21T08:47:37;8.65;;;5.25;;
6564;SDS011;3316;44.118;27.258;2023-05-21T08:50:07;7.47;;;5.50;;
6564;SDS011;3316;44.118;27.258;2023-05-21T08:52:34;6.75;;;5.53;;
6564;SDS011;3316;44.118;27.258;2023-05-21T08:55:00;9.38;;;5.05;;
6564;SDS011;3316;44.118;27.258;2023-05-21T08:57:27;9.25;;;5.38;;
6564;SDS011;3316;44.118;27.258;2023-05-21T08:59:55;9.13;;;5.00;;
6564;SDS011;3316;44.118;27.258;2023-05-21T09:02:21;8.57;;;4.90;;
6564;SDS011;3316;44.118;27.258;2023-05-21T09:04:49;8.52;;;4.85;;
6564;SDS011;3316;44.118;27.258;2023-05-21T09:07:21;11.20;;;5.50;;
6564;SDS011;3316;44.118;27.258;2023-05-21T09:09:57;7.63;;;5.25;;
6564;SDS011;3316;44.118;27.258;2023-05-21T09:12:27;5.82;;;4.45;;
6564;SDS011;3316;44.118;27.258;2023-05-21T09:14:53;14.90;;;5.20;;
6564;SDS011;3316;44.118;27.258;2023-05-21T09:17:21;7.05;;;4.93;;
6564;SDS011;3316;44.118;27.258;2023-05-21T09:22:34;6.57;;;4.80;;
6564;SDS011;3316;44.118;27.258;2023-05-21T09:25:05;9.23;;;5.30;;
6564;SDS011;3316;44.118;27.258;2023-05-21T09:27:32;6.85;;;5.00;;
6564;SDS011;3316;44.118;27.258;2023-05-21T09:29:58;7.43;;;4.97;;
6564;SDS011;3316;44.118;27.258;2023-05-21T09:32:23;5.82;;;4.55;;
6564;SDS011;3316;44.118;27.258;2023-05-21T09:34:49;7.78;;;4.72;;
6564;SDS011;3316;44.118;27.258;2023-05-21T09:37:14;9.43;;;4.45;;
6564;SDS011;3316;44.118;27.258;2023-05-21T09:39:40;18.05;;;6.35;;
6564;SDS011;3316;44.118;27.258;2023-05-21T09:42:06;7.63;;;5.30;;
6564;SDS011;3316;44.118;27.258;2023-05-21T09:44:31;7.60;;;4.88;;
6564;SDS011;3316;44.118;27.258;2023-05-21T09:46:59;7.90;;;5.10;;
6564;SDS011;3316;44.118;27.258;2023-05-21T09:49:25;7.10;;;5.32;;
6564;SDS011;3316;44.118;27.258;2023-05-21T09:51:55;9.20;;;5.55;;
6564;SDS011;3316;44.118;27.258;2023-05-21T09:54:22;7.07;;;5.20;;
6564;SDS011;3316;44.118;27.258;2023-05-21T09:56:48;6.00;;;5.05;;
6564;SDS011;3316;44.118;27.258;2023-05-21T09:59:16;8.10;;;5.07;;
6564;SDS011;3316;44.118;27.258;2023-05-21T10:01:41;7.03;;;4.95;;
6564;SDS011;3316;44.118;27.258;2023-05-21T10:04:08;10.23;;;4.75;;
6564;SDS011;3316;44.118;27.258;2023-05-21T10:06:36;6.65;;;5.13;;
6564;SDS011;3316;44.118;27.258;2023-05-21T10:09:06;12.82;;;5.03;;
6564;SDS011;3316;44.118;27.258;2023-05-21T10:11:34;8.80;;;5.07;;
6564;SDS011;3316;44.118;27.258;2023-05-21T10:14:05;8.50;;;5.05;;
6564;SDS011;3316;44.118;27.258;2023-05-21T10:16:32;8.38;;;4.70;;
6564;SDS011;3316;44.118;27.258;2023-05-21T10:18:58;5.30;;;4.30;;
6564;SDS011;3316;44.118;27.258;2023-05-21T10:21:27;6.82;;;3.55;;
6564;SDS011;3316;44.118;27.258;2023-05-21T10:23:55;7.55;;;4.35;;
6564;SDS011;3316;44.118;27.258;2023-05-21T10:26:22;5.38;;;4.10;;
6564;SDS011;3316;44.118;27.258;2023-05-21T10:28:48;7.68;;;4.25;;
6564;SDS011;3316;44.118;27.258;2023-05-21T10:31:15;5.70;;;3.45;;
6564;SDS011;3316;44.118;27.258;2023-05-21T10:33:40;6.43;;;3.85;;
6564;SDS011;3316;44.118;27.258;2023-05-21T10:36:07;11.25;;;4.15;;
6564;SDS011;3316;44.118;27.258;2023-05-21T10:38:34;8.18;;;4.18;;
6564;SDS011;3316;44.118;27.258;2023-05-21T10:41:01;4.85;;;3.90;;
6564;SDS011;3316;44.118;27.258;2023-05-21T11:00:15;8.93;;;4.78;;
6564;SDS011;3316;44.118;27.258;2023-05-21T11:02:44;9.43;;;4.18;;
6564;SDS011;3316;44.118;27.258;2023-05-21T11:05:11;5.72;;;4.20;;
6564;SDS011;3316;44.118;27.258;2023-05-21T11:07:49;8.93;;;4.00;;
6564;SDS011;3316;44.118;27.258;2023-05-21T11:13:12;9.02;;;3.85;;
6564;SDS011;3316;44.118;27.258;2023-05-21T11:21:00;6.97;;;3.90;;
6564;SDS011;3316;44.118;27.258;2023-05-21T11:26:24;10.32;;;4.45;;
6564;SDS011;3316;44.118;27.258;2023-05-21T11:31:30;12.50;;;4.07;;
6564;SDS011;3316;44.118;27.258;2023-05-21T11:34:14;11.05;;;4.43;;
6564;SDS011;3316;44.118;27.258;2023-05-21T11:36:44;5.28;;;4.00;;
6564;SDS011;3316;44.118;27.258;2023-05-21T11:39:17;10.30;;;4.68;;
6564;SDS011;3316;44.118;27.258;2023-05-21T11:41:59;6.25;;;4.25;;
6564;SDS011;3316;44.118;27.258;2023-05-21T11:47:12;8.25;;;4.88;;
6564;SDS011;3316;44.118;27.258;2023-05-21T11:49:45;6.78;;;4.18;;
6564;SDS011;3316;44.118;27.258;2023-05-21T11:52:11;9.32;;;4.88;;
6564;SDS011;3316;44.118;27.258;2023-05-21T11:54:42;10.13;;;4.10;;
6564;SDS011;3316;44.118;27.258;2023-05-21T11:57:10;7.03;;;4.68;;
6564;SDS011;3316;44.118;27.258;2023-05-21T11:59:38;10.02;;;5.10;;
6564;SDS011;3316;44.118;27.258;2023-05-21T12:02:05;10.70;;;4.40;;
6564;SDS011;3316;44.118;27.258;2023-05-21T12:04:31;7.00;;;4.40;;
6564;SDS011;3316;44.118;27.258;2023-05-21T12:07:09;6.57;;;4.00;;
6564;SDS011;3316;44.118;27.258;2023-05-21T12:12:10;9.65;;;4.55;;
6564;SDS011;3316;44.118;27.258;2023-05-21T12:14:38;10.88;;;5.18;;
6564;SDS011;3316;44.118;27.258;2023-05-21T12:17:04;6.18;;;4.45;;
6564;SDS011;3316;44.118;27.258;2023-05-21T12:19:32;7.40;;;4.40;;
6564;SDS011;3316;44.118;27.258;2023-05-21T12:22:04;8.73;;;4.22;;
6564;SDS011;3316;44.118;27.258;2023-05-21T12:24:31;7.50;;;3.83;;
6564;SDS011;3316;44.118;27.258;2023-05-21T12:26:58;5.68;;;3.90;;
6564;SDS011;3316;44.118;27.258;2023-05-21T12:29:34;8.18;;;4.25;;
6564;SDS011;3316;44.118;27.258;2023-05-21T12:32:02;7.20;;;4.35;;
6564;SDS011;3316;44.118;27.258;2023-05-21T12:34:40;7.30;;;4.85;;
6564;SDS011;3316;44.118;27.258;2023-05-21T12:37:14;10.70;;;4.13;;
6564;SDS011;3316;44.118;27.258;2023-05-21T12:39:41;6.38;;;3.92;;
6564;SDS011;3316;44.118;27.258;2023-05-21T12:42:08;8.25;;;4.72;;
6564;SDS011;3316;44.118;27.258;2023-05-21T12:44:33;8.55;;;4.03;;
6564;SDS011;3316;44.118;27.258;2023-05-21T12:46:59;7.32;;;4.30;;
6564;SDS011;3316;44.118;27.258;2023-05-21T12:49:41;6.78;;;4.65;;
6564;SDS011;3316;44.118;27.258;2023-05-21T12:52:12;6.50;;;4.00;;
6564;SDS011;3316;44.118;27.258;2023-05-21T12:54:39;4.88;;;3.85;;
6564;SDS011;3316;44.118;27.258;2023-05-21T13:02:24;5.53;;;4.25;;
6564;SDS011;3316;44.118;27.258;2023-05-21T13:04:59;7.30;;;4.40;;
6564;SDS011;3316;44.118;27.258;2023-05-21T13:07:33;9.02;;;4.95;;
6564;SDS011;3316;44.118;27.258;2023-05-21T13:10:00;5.90;;;4.53;;
6564;SDS011;3316;44.118;27.258;2023-05-21T13:12:27;7.35;;;4.95;;
6564;SDS011;3316;44.118;27.258;2023-05-21T13:14:54;17.70;;;5.72;;
6564;SDS011;3316;44.118;27.258;2023-05-21T13:17:21;9.88;;;5.20;;
6564;SDS011;3316;44.118;27.258;2023-05-21T13:22:33;8.23;;;4.43;;
6564;SDS011;3316;44.118;27.258;2023-05-21T13:25:00;8.93;;;4.63;;
6564;SDS011;3316;44.118;27.258;2023-05-21T13:27:26;10.90;;;4.28;;
6564;SDS011;3316;44.118;27.258;2023-05-21T13:29:51;7.35;;;4.57;;
6564;SDS011;3316;44.118;27.258;2023-05-21T13:32:17;8.75;;;3.70;;
6564;SDS011;3316;44.118;27.258;2023-05-21T13:34:42;12.00;;;4.32;;
6564;SDS011;3316;44.118;27.258;2023-05-21T13:37:08;8.80;;;4.38;;
6564;SDS011;3316;44.118;27.258;2023-05-21T13:39:33;6.82;;;3.92;;
6564;SDS011;3316;44.118;27.258;2023-05-21T13:41:59;5.10;;;4.15;;
6564;SDS011;3316;44.118;27.258;2023-05-21T13:44:25;6.47;;;3.28;;
6564;SDS011;3316;44.118;27.258;2023-05-21T13:46:50;7.18;;;3.28;;
6564;SDS011;3316;44.118;27.258;2023-05-21T13:49:16;5.05;;;3.40;;
6564;SDS011;3316;44.118;27.258;2023-05-21T13:51:41;5.70;;;3.20;;
6564;SDS011;3316;44.118;27.258;2023-05-21T13:54:07;6.85;;;3.38;;
6564;SDS011;3316;44.118;27.258;2023-05-21T13:56:32;9.52;;;3.60;;
6564;SDS011;3316;44.118;27.258;2023-05-21T13:58:58;7.47;;;3.10;;
6564;SDS011;3316;44.118;27.258;2023-05-21T14:01:24;6.72;;;3.25;;
6564;SDS011;3316;44.118;27.258;2023-05-21T14:03:49;4.82;;;2.97;;
6564;SDS011;3316;44.118;27.258;2023-05-21T14:06:15;6.68;;;2.97;;
6564;SDS011;3316;44.118;27.258;2023-05-21T14:08:40;4.40;;;3.38;;
6564;SDS011;3316;44.118;27.258;2023-05-21T14:11:06;6.05;;;3.17;;
6564;SDS011;3316;44.118;27.258;2023-05-21T14:13:31;5.50;;;3.17;;
6564;SDS011;3316;44.118;27.258;2023-05-21T14:15:57;4.40;;;2.80;;
6564;SDS011;3316;44.118;27.258;2023-05-21T14:18:23;7.70;;;2.88;;
6564;SDS011;3316;44.118;27.258;2023-05-21T14:20:48;8.13;;;2.67;;
6564;SDS011;3316;44.118;27.258;2023-05-21T14:23:13;4.00;;;2.72;;
6564;SDS011;3316;44.118;27.258;2023-05-21T14:25:40;4.07;;;2.90;;
6564;SDS011;3316;44.118;27.258;2023-05-21T14:28:06;9.45;;;3.03;;
6564;SDS011;3316;44.118;27.258;2023-05-21T14:30:31;6.63;;;3.13;;
6564;SDS011;3316;44.118;27.258;2023-05-21T14:32:57;4.03;;;2.63;;
6564;SDS011;3316;44.118;27.258;2023-05-21T14:35:22;5.03;;;2.90;;
6564;SDS011;3316;44.118;27.258;2023-05-21T14:37:48;5.93;;;2.88;;
6564;SDS011;3316;44.118;27.258;2023-05-21T14:40:13;5.75;;;3.00;;
6564;SDS011;3316;44.118;27.258;2023-05-21T14:42:39;4.60;;;2.70;;
6564;SDS011;3316;44.118;27.258;2023-05-21T14:45:04;3.83;;;2.65;;
6564;SDS011;3316;44.118;27.258;2023-05-21T14:47:30;9.23;;;2.58;;
6564;SDS011;3316;44.118;27.258;2023-05-21T14:49:55;5.03;;;2.58;;
6564;SDS011;3316;44.118;27.258;2023-05-21T14:52:21;9.63;;;3.22;;
6564;SDS011;3316;44.118;27.258;2023-05-21T14:54:46;7.45;;;3.00;;
6564;SDS011;3316;44.118;27.258;2023-05-21T14:57:12;8.90;;;3.17;;
6564;SDS011;3316;44.118;27.258;2023-05-21T14:59:37;8.52;;;2.92;;
6564;SDS011;3316;44.118;27.258;2023-05-21T15:02:03;5.88;;;5.22;;
6564;SDS011;3316;44.118;27.258;2023-05-21T15:04:28;10.32;;;5.35;;
6564;SDS011;3316;44.118;27.258;2023-05-21T15:06:54;5.07;;;3.88;;
6564;SDS011;3316;44.118;27.258;2023-05-21T15:09:19;6.70;;;4.20;;
6564;SDS011;3316;44.118;27.258;2023-05-21T15:11:45;8.73;;;3.55;;
6564;SDS011;3316;44.118;27.258;2023-05-21T15:14:10;4.93;;;3.28;;
6564;SDS011;3316;44.118;27.258;2023-05-21T15:16:36;6.88;;;2.83;;
6564;SDS011;3316;44.118;27.258;2023-05-21T15:19:02;3.75;;;2.63;;
6564;SDS011;3316;44.118;27.258;2023-05-21T15:21:27;3.25;;;2.65;;
6564;SDS011;3316;44.118;27.258;2023-05-21T15:23:53;8.45;;;2.97;;
6564;SDS011;3316;44.118;27.258;2023-05-21T15:26:18;9.20;;;3.15;;
6564;SDS011;3316;44.118;27.258;2023-05-21T15:28:45;4.75;;;2.75;;
6564;SDS011;3316;44.118;27.258;2023-05-21T15:31:11;5.50;;;2.88;;
6564;SDS011;3316;44.118;27.258;2023-05-21T15:33:36;11.55;;;3.17;;
6564;SDS011;3316;44.118;27.258;2023-05-21T15:36:02;5.93;;;2.83;;